sensor_id;sensor_type;location;lat;lon;timestamp;P1;durP1;ratioP1;P2;durP2;ratioP2
32228;SDS011;18717;48.034;11.186;2022-11-20T00:00:52;8.27;;;7.57;;
32228;SDS011;18717;48.034;11.186;2022-11-20T00:03:20;8.35;;;7.57;;
32228;SDS011;18717;48.034;11.186;2022-11-20T00:05:48;7.65;;;7.15;;
32228;SDS011;18717;48.034;11.186;2022-11-20T00:08:15;8.52;;;7.93;;
32228;SDS011;18717;48.034;11.186;2022-11-20T00:10:43;8.07;;;7.45;;
32228;SDS011;18717;48.034;11.186;2022-11-20T00:13:11;7.95;;;7.45;;
32228;SDS011;18717;48.034;11.186;2022-11-20T00:15:38;8.15;;;7.55;;
32228;SDS011;18717;48.034;11.186;2022-11-20T00:18:07;7.53;;;7.13;;
32228;SDS011;18717;48.034;11.186;2022-11-20T00:20:35;8.05;;;7.45;;
32228;SDS011;18717;48.034;11.186;2022-11-20T00:23:03;7.93;;;7.43;;
32228;SDS011;18717;48.034;11.186;2022-11-20T00:25:33;8.13;;;7.60;;
32228;SDS011;18717;48.034;11.186;2022-11-20T00:28:01;11.10;;;7.63;;
32228;SDS011;18717;48.034;11.186;2022-11-20T00:30:29;8.38;;;7.75;;
32228;SDS011;18717;48.034;11.186;2022-11-20T00:32:56;7.80;;;7.10;;
32228;SDS011;18717;48.034;11.186;2022-11-20T00:35:26;8.23;;;7.57;;
32228;SDS011;18717;48.034;11.186;2022-11-20T00:37:53;8.50;;;7.80;;
32228;SDS011;18717;48.034;11.186;2022-11-20T00:40:21;7.82;;;7.32;;
32228;SDS011;18717;48.034;11.186;2022-11-20T00:42:49;8.05;;;7.50;;
32228;SDS011;18717;48.034;11.186;2022-11-20T00:45:16;8.05;;;7.57;;
32228;SDS011;18717;48.034;11.186;2022-11-20T00:47:44;8.05;;;7.55;;
32228;SDS011;18717;48.034;11.186;2022-11-20T00:50:12;8.35;;;7.70;;
32228;SDS011;18717;48.034;11.186;2022-11-20T00:52:41;7.63;;;7.13;;
32228;SDS011;18717;48.034;11.186;2022-11-20T00:55:09;8.32;;;7.63;;
32228;SDS011;18717;48.034;11.186;2022-11-20T00:57:37;7.90;;;7.30;;
32228;SDS011;18717;48.034;11.186;2022-11-20T01:00:06;8.07;;;7.35;;
32228;SDS011;18717;48.034;11.186;2022-11-20T01:02:34;8.45;;;7.90;;
32228;SDS011;18717;48.034;11.186;2022-11-20T01:05:02;8.68;;;8.07;;
32228;SDS011;18717;48.034;11.186;2022-11-20T01:07:30;7.55;;;7.00;;
32228;SDS011;18717;48.034;11.186;2022-11-20T01:09:59;8.73;;;7.93;;
32228;SDS011;18717;48.034;11.186;2022-11-20T01:12:27;7.88;;;7.32;;
32228;SDS011;18717;48.034;11.186;2022-11-20T01:14:54;7.95;;;7.45;;
32228;SDS011;18717;48.034;11.186;2022-11-20T01:17:22;8.40;;;7.60;;
32228;SDS011;18717;48.034;11.186;2022-11-20T01:19:50;8.63;;;8.02;;
32228;SDS011;18717;48.034;11.186;2022-11-20T01:22:17;8.90;;;8.10;;
32228;SDS011;18717;48.034;11.186;2022-11-20T01:24:45;8.75;;;8.10;;
32228;SDS011;18717;48.034;11.186;2022-11-20T01:27:14;8.13;;;7.55;;
32228;SDS011;18717;48.034;11.186;2022-11-20T01:29:42;8.60;;;7.90;;
32228;SDS011;18717;48.034;11.186;2022-11-20T01:32:09;8.38;;;7.60;;
32228;SDS011;18717;48.034;11.186;2022-11-20T01:34:38;8.73;;;8.13;;
32228;SDS011;18717;48.034;11.186;2022-11-20T01:37:05;8.82;;;7.80;;
32228;SDS011;18717;48.034;11.186;2022-11-20T01:39:33;9.45;;;7.68;;
32228;SDS011;18717;48.034;11.186;2022-11-20T01:42:01;9.77;;;7.93;;
32228;SDS011;18717;48.034;11.186;2022-11-20T01:44:51;8.40;;;7.80;;
32228;SDS011;18717;48.034;11.186;2022-11-20T01:47:22;8.57;;;7.95;;
32228;SDS011;18717;48.034;11.186;2022-11-20T01:49:54;8.55;;;7.95;;
32228;SDS011;18717;48.034;11.186;2022-11-20T01:52:24;8.60;;;7.90;;
32228;SDS011;18717;48.034;11.186;2022-11-20T01:54:59;8.77;;;8.20;;
32228;SDS011;18717;48.034;11.186;2022-11-20T01:57:28;8.73;;;8.02;;
32228;SDS011;18717;48.034;11.186;2022-11-20T01:59:59;8.95;;;8.15;;
32228;SDS011;18717;48.034;11.186;2022-11-20T02:02:30;9.65;;;8.88;;
32228;SDS011;18717;48.034;11.186;2022-11-20T02:05:00;9.48;;;8.68;;
32228;SDS011;18717;48.034;11.186;2022-11-20T02:07:34;9.25;;;8.55;;
32228;SDS011;18717;48.034;11.186;2022-11-20T02:10:02;9.50;;;8.57;;
32228;SDS011;18717;48.034;11.186;2022-11-20T02:12:30;9.68;;;8.70;;
32228;SDS011;18717;48.034;11.186;2022-11-20T02:15:17;9.13;;;8.40;;
32228;SDS011;18717;48.034;11.186;2022-11-20T02:17:44;10.27;;;9.20;;
32228;SDS011;18717;48.034;11.186;2022-11-20T02:20:12;9.60;;;8.80;;
32228;SDS011;18717;48.034;11.186;2022-11-20T02:22:43;9.25;;;8.48;;
32228;SDS011;18717;48.034;11.186;2022-11-20T02:25:16;8.82;;;8.02;;
32228;SDS011;18717;48.034;11.186;2022-11-20T02:27:44;10.00;;;9.02;;
32228;SDS011;18717;48.034;11.186;2022-11-20T02:30:12;8.95;;;8.23;;
32228;SDS011;18717;48.034;11.186;2022-11-20T02:32:40;9.52;;;8.85;;
32228;SDS011;18717;48.034;11.186;2022-11-20T02:35:08;9.45;;;8.75;;
32228;SDS011;18717;48.034;11.186;2022-11-20T02:37:37;9.07;;;8.27;;
32228;SDS011;18717;48.034;11.186;2022-11-20T02:40:07;9.18;;;8.25;;
32228;SDS011;18717;48.034;11.186;2022-11-20T02:42:37;9.05;;;8.35;;
32228;SDS011;18717;48.034;11.186;2022-11-20T02:45:05;9.43;;;8.52;;
32228;SDS011;18717;48.034;11.186;2022-11-20T02:47:34;10.30;;;8.23;;
32228;SDS011;18717;48.034;11.186;2022-11-20T02:50:02;8.88;;;8.30;;
32228;SDS011;18717;48.034;11.186;2022-11-20T02:52:30;9.52;;;8.85;;
32228;SDS011;18717;48.034;11.186;2022-11-20T02:54:58;9.60;;;8.90;;
32228;SDS011;18717;48.034;11.186;2022-11-20T02:57:25;9.95;;;8.95;;
32228;SDS011;18717;48.034;11.186;2022-11-20T02:59:55;9.60;;;8.73;;
32228;SDS011;18717;48.034;11.186;2022-11-20T03:02:23;9.48;;;8.65;;
32228;SDS011;18717;48.034;11.186;2022-11-20T03:04:50;9.40;;;8.45;;
32228;SDS011;18717;48.034;11.186;2022-11-20T03:07:18;10.02;;;9.23;;
32228;SDS011;18717;48.034;11.186;2022-11-20T03:09:46;9.82;;;8.93;;
32228;SDS011;18717;48.034;11.186;2022-11-20T03:12:13;8.73;;;8.13;;
32228;SDS011;18717;48.034;11.186;2022-11-20T03:14:41;10.25;;;9.25;;
32228;SDS011;18717;48.034;11.186;2022-11-20T03:17:11;9.57;;;8.85;;
32228;SDS011;18717;48.034;11.186;2022-11-20T03:19:39;9.15;;;8.45;;
32228;SDS011;18717;48.034;11.186;2022-11-20T03:22:07;10.57;;;9.73;;
32228;SDS011;18717;48.034;11.186;2022-11-20T03:24:35;10.23;;;9.35;;
32228;SDS011;18717;48.034;11.186;2022-11-20T03:27:03;10.75;;;9.77;;
32228;SDS011;18717;48.034;11.186;2022-11-20T03:29:30;10.50;;;9.65;;
32228;SDS011;18717;48.034;11.186;2022-11-20T03:31:58;10.88;;;9.93;;
32228;SDS011;18717;48.034;11.186;2022-11-20T03:34:27;11.27;;;9.45;;
32228;SDS011;18717;48.034;11.186;2022-11-20T03:36:55;11.57;;;10.48;;
32228;SDS011;18717;48.034;11.186;2022-11-20T03:39:22;12.18;;;10.98;;
32228;SDS011;18717;48.034;11.186;2022-11-20T03:41:50;13.65;;;10.68;;
32228;SDS011;18717;48.034;11.186;2022-11-20T03:44:18;25.63;;;13.73;;
32228;SDS011;18717;48.034;11.186;2022-11-20T03:46:48;11.40;;;10.27;;
32228;SDS011;18717;48.034;11.186;2022-11-20T03:49:16;15.02;;;10.32;;
32228;SDS011;18717;48.034;11.186;2022-11-20T03:51:45;13.95;;;11.00;;
32228;SDS011;18717;48.034;11.186;2022-11-20T03:54:13;12.73;;;10.30;;
32228;SDS011;18717;48.034;11.186;2022-11-20T03:56:41;12.68;;;10.43;;
32228;SDS011;18717;48.034;11.186;2022-11-20T03:59:09;11.40;;;10.30;;
32228;SDS011;18717;48.034;11.186;2022-11-20T04:01:37;11.40;;;10.20;;
32228;SDS011;18717;48.034;11.186;2022-11-20T04:04:08;12.80;;;11.63;;
32228;SDS011;18717;48.034;11.186;2022-11-20T04:06:36;11.75;;;10.50;;
32228;SDS011;18717;48.034;11.186;2022-11-20T04:09:06;16.20;;;12.25;;
32228;SDS011;18717;48.034;11.186;2022-11-20T04:11:35;12.32;;;11.20;;
32228;SDS011;18717;48.034;11.186;2022-11-20T04:14:05;11.57;;;10.48;;
32228;SDS011;18717;48.034;11.186;2022-11-20T04:16:35;11.02;;;10.10;;
32228;SDS011;18717;48.034;11.186;2022-11-20T04:19:04;10.98;;;9.93;;
32228;SDS011;18717;48.034;11.186;2022-11-20T04:21:32;11.43;;;10.32;;
32228;SDS011;18717;48.034;11.186;2022-11-20T04:24:00;11.00;;;9.88;;
32228;SDS011;18717;48.034;11.186;2022-11-20T04:26:29;11.82;;;10.73;;
32228;SDS011;18717;48.034;11.186;2022-11-20T04:28:58;10.95;;;9.93;;
32228;SDS011;18717;48.034;11.186;2022-11-20T04:31:28;11.45;;;10.57;;
32228;SDS011;18717;48.034;11.186;2022-11-20T04:33:59;9.77;;;8.90;;
32228;SDS011;18717;48.034;11.186;2022-11-20T04:36:27;10.70;;;9.73;;
32228;SDS011;18717;48.034;11.186;2022-11-20T04:38:56;10.23;;;9.32;;
32228;SDS011;18717;48.034;11.186;2022-11-20T04:41:25;11.25;;;10.25;;
32228;SDS011;18717;48.034;11.186;2022-11-20T04:43:57;10.45;;;9.65;;
32228;SDS011;18717;48.034;11.186;2022-11-20T04:46:28;10.95;;;9.35;;
32228;SDS011;18717;48.034;11.186;2022-11-20T04:48:57;10.77;;;9.88;;
32228;SDS011;18717;48.034;11.186;2022-11-20T04:51:25;12.88;;;10.07;;
32228;SDS011;18717;48.034;11.186;2022-11-20T04:53:53;10.40;;;9.60;;
32228;SDS011;18717;48.034;11.186;2022-11-20T04:56:21;10.88;;;9.95;;
32228;SDS011;18717;48.034;11.186;2022-11-20T04:58:48;11.77;;;10.05;;
32228;SDS011;18717;48.034;11.186;2022-11-20T05:01:18;13.70;;;11.25;;
32228;SDS011;18717;48.034;11.186;2022-11-20T05:03:47;11.38;;;10.27;;
32228;SDS011;18717;48.034;11.186;2022-11-20T05:06:16;12.77;;;11.30;;
32228;SDS011;18717;48.034;11.186;2022-11-20T05:08:45;11.20;;;10.15;;
32228;SDS011;18717;48.034;11.186;2022-11-20T05:11:14;10.63;;;9.70;;
32228;SDS011;18717;48.034;11.186;2022-11-20T05:13:42;10.55;;;9.55;;
32228;SDS011;18717;48.034;11.186;2022-11-20T05:16:11;11.48;;;10.38;;
32228;SDS011;18717;48.034;11.186;2022-11-20T05:18:41;11.75;;;10.57;;
32228;SDS011;18717;48.034;11.186;2022-11-20T05:21:09;9.55;;;8.80;;
32228;SDS011;18717;48.034;11.186;2022-11-20T05:23:38;10.85;;;9.77;;
32228;SDS011;18717;48.034;11.186;2022-11-20T05:26:06;11.52;;;10.43;;
32228;SDS011;18717;48.034;11.186;2022-11-20T05:28:38;10.82;;;9.93;;
32228;SDS011;18717;48.034;11.186;2022-11-20T05:31:06;10.68;;;9.65;;
32228;SDS011;18717;48.034;11.186;2022-11-20T05:33:34;15.88;;;11.80;;
32228;SDS011;18717;48.034;11.186;2022-11-20T05:36:05;10.50;;;9.60;;
32228;SDS011;18717;48.034;11.186;2022-11-20T05:38:33;9.95;;;9.07;;
32228;SDS011;18717;48.034;11.186;2022-11-20T05:41:04;8.63;;;7.97;;
32228;SDS011;18717;48.034;11.186;2022-11-20T05:43:33;9.15;;;8.35;;
32228;SDS011;18717;48.034;11.186;2022-11-20T05:46:01;9.15;;;8.40;;
32228;SDS011;18717;48.034;11.186;2022-11-20T05:48:30;9.30;;;8.50;;
32228;SDS011;18717;48.034;11.186;2022-11-20T05:50:57;8.63;;;7.97;;
32228;SDS011;18717;48.034;11.186;2022-11-20T05:53:27;8.50;;;7.90;;
32228;SDS011;18717;48.034;11.186;2022-11-20T05:55:58;8.63;;;8.00;;
32228;SDS011;18717;48.034;11.186;2022-11-20T05:58:26;8.20;;;7.60;;
32228;SDS011;18717;48.034;11.186;2022-11-20T06:00:54;8.23;;;7.65;;
32228;SDS011;18717;48.034;11.186;2022-11-20T06:03:22;9.82;;;9.07;;
32228;SDS011;18717;48.034;11.186;2022-11-20T06:05:50;9.07;;;8.48;;
32228;SDS011;18717;48.034;11.186;2022-11-20T06:08:18;8.50;;;7.80;;
32228;SDS011;18717;48.034;11.186;2022-11-20T06:10:47;9.43;;;8.18;;
32228;SDS011;18717;48.034;11.186;2022-11-20T06:13:14;8.57;;;7.60;;
32228;SDS011;18717;48.034;11.186;2022-11-20T06:15:43;8.52;;;7.97;;
32228;SDS011;18717;48.034;11.186;2022-11-20T06:18:15;8.38;;;7.78;;
32228;SDS011;18717;48.034;11.186;2022-11-20T06:20:43;8.82;;;8.15;;
32228;SDS011;18717;48.034;11.186;2022-11-20T06:23:11;8.35;;;7.70;;
32228;SDS011;18717;48.034;11.186;2022-11-20T06:25:39;8.18;;;7.68;;
32228;SDS011;18717;48.034;11.186;2022-11-20T06:28:08;10.18;;;9.27;;
32228;SDS011;18717;48.034;11.186;2022-11-20T06:30:36;9.60;;;8.40;;
32228;SDS011;18717;48.034;11.186;2022-11-20T06:33:04;9.50;;;8.40;;
32228;SDS011;18717;48.034;11.186;2022-11-20T06:35:31;9.68;;;8.93;;
32228;SDS011;18717;48.034;11.186;2022-11-20T06:37:59;9.57;;;8.80;;
32228;SDS011;18717;48.034;11.186;2022-11-20T06:40:27;9.93;;;9.02;;
32228;SDS011;18717;48.034;11.186;2022-11-20T06:42:54;10.80;;;9.80;;
32228;SDS011;18717;48.034;11.186;2022-11-20T06:45:23;11.43;;;9.43;;
32228;SDS011;18717;48.034;11.186;2022-11-20T06:47:51;10.15;;;9.15;;
32228;SDS011;18717;48.034;11.186;2022-11-20T06:50:19;11.52;;;9.90;;
32228;SDS011;18717;48.034;11.186;2022-11-20T06:52:46;12.43;;;9.50;;
32228;SDS011;18717;48.034;11.186;2022-11-20T06:55:14;10.25;;;9.40;;
32228;SDS011;18717;48.034;11.186;2022-11-20T06:57:42;10.77;;;9.63;;
32228;SDS011;18717;48.034;11.186;2022-11-20T07:00:10;10.32;;;9.38;;
32228;SDS011;18717;48.034;11.186;2022-11-20T07:02:40;10.98;;;9.95;;
32228;SDS011;18717;48.034;11.186;2022-11-20T07:05:07;11.88;;;10.30;;
32228;SDS011;18717;48.034;11.186;2022-11-20T07:07:35;10.07;;;9.05;;
32228;SDS011;18717;48.034;11.186;2022-11-20T07:10:03;10.38;;;9.48;;
32228;SDS011;18717;48.034;11.186;2022-11-20T07:12:32;10.23;;;9.23;;
32228;SDS011;18717;48.034;11.186;2022-11-20T07:14:59;10.55;;;9.55;;
32228;SDS011;18717;48.034;11.186;2022-11-20T07:17:27;10.23;;;9.32;;
32228;SDS011;18717;48.034;11.186;2022-11-20T07:19:56;10.35;;;9.48;;
32228;SDS011;18717;48.034;11.186;2022-11-20T07:22:24;10.77;;;9.88;;
32228;SDS011;18717;48.034;11.186;2022-11-20T07:24:51;10.90;;;9.90;;
32228;SDS011;18717;48.034;11.186;2022-11-20T07:27:19;9.88;;;8.88;;
32228;SDS011;18717;48.034;11.186;2022-11-20T07:29:46;11.40;;;8.85;;
32228;SDS011;18717;48.034;11.186;2022-11-20T07:32:14;9.57;;;8.73;;
32228;SDS011;18717;48.034;11.186;2022-11-20T07:34:42;8.73;;;8.13;;
32228;SDS011;18717;48.034;11.186;2022-11-20T07:37:11;9.93;;;9.13;;
32228;SDS011;18717;48.034;11.186;2022-11-20T07:39:39;9.23;;;8.52;;
32228;SDS011;18717;48.034;11.186;2022-11-20T07:42:06;9.30;;;8.63;;
32228;SDS011;18717;48.034;11.186;2022-11-20T07:44:34;9.70;;;8.85;;
32228;SDS011;18717;48.034;11.186;2022-11-20T07:47:02;8.65;;;8.05;;
32228;SDS011;18717;48.034;11.186;2022-11-20T07:49:30;8.82;;;8.23;;
32228;SDS011;18717;48.034;11.186;2022-11-20T07:51:58;9.88;;;9.07;;
32228;SDS011;18717;48.034;11.186;2022-11-20T07:54:31;9.50;;;8.70;;
32228;SDS011;18717;48.034;11.186;2022-11-20T07:56:59;10.18;;;9.07;;
32228;SDS011;18717;48.034;11.186;2022-11-20T07:59:27;8.98;;;8.27;;
32228;SDS011;18717;48.034;11.186;2022-11-20T08:01:54;9.65;;;8.85;;
32228;SDS011;18717;48.034;11.186;2022-11-20T08:04:22;10.52;;;8.23;;
32228;SDS011;18717;48.034;11.186;2022-11-20T08:06:51;10.75;;;9.68;;
32228;SDS011;18717;48.034;11.186;2022-11-20T08:09:19;9.43;;;8.63;;
32228;SDS011;18717;48.034;11.186;2022-11-20T08:11:48;8.98;;;8.20;;
32228;SDS011;18717;48.034;11.186;2022-11-20T08:14:34;8.90;;;8.05;;
32228;SDS011;18717;48.034;11.186;2022-11-20T08:17:02;8.60;;;8.00;;
32228;SDS011;18717;48.034;11.186;2022-11-20T08:19:29;9.10;;;8.30;;
32228;SDS011;18717;48.034;11.186;2022-11-20T08:21:57;9.27;;;8.57;;
32228;SDS011;18717;48.034;11.186;2022-11-20T08:24:25;8.95;;;8.20;;
32228;SDS011;18717;48.034;11.186;2022-11-20T08:26:56;8.88;;;8.27;;
32228;SDS011;18717;48.034;11.186;2022-11-20T08:29:25;9.23;;;8.43;;
32228;SDS011;18717;48.034;11.186;2022-11-20T08:31:53;9.13;;;8.43;;
32228;SDS011;18717;48.034;11.186;2022-11-20T08:34:20;8.70;;;7.90;;
32228;SDS011;18717;48.034;11.186;2022-11-20T08:36:48;9.80;;;8.98;;
32228;SDS011;18717;48.034;11.186;2022-11-20T08:39:16;9.88;;;9.07;;
32228;SDS011;18717;48.034;11.186;2022-11-20T08:41:44;8.65;;;8.05;;
32228;SDS011;18717;48.034;11.186;2022-11-20T08:44:13;9.40;;;8.57;;
32228;SDS011;18717;48.034;11.186;2022-11-20T08:46:41;9.07;;;8.35;;
32228;SDS011;18717;48.034;11.186;2022-11-20T08:49:10;10.32;;;9.43;;
32228;SDS011;18717;48.034;11.186;2022-11-20T08:51:39;8.75;;;8.00;;
32228;SDS011;18717;48.034;11.186;2022-11-20T08:54:06;10.40;;;9.25;;
32228;SDS011;18717;48.034;11.186;2022-11-20T08:56:34;8.40;;;7.85;;
32228;SDS011;18717;48.034;11.186;2022-11-20T08:59:03;9.75;;;8.95;;
32228;SDS011;18717;48.034;11.186;2022-11-20T09:01:52;8.65;;;7.97;;
32228;SDS011;18717;48.034;11.186;2022-11-20T09:04:19;8.63;;;8.00;;
32228;SDS011;18717;48.034;11.186;2022-11-20T09:06:47;8.63;;;8.02;;
32228;SDS011;18717;48.034;11.186;2022-11-20T09:09:17;8.40;;;7.80;;
32228;SDS011;18717;48.034;11.186;2022-11-20T09:11:45;8.15;;;7.65;;
32228;SDS011;18717;48.034;11.186;2022-11-20T09:14:13;8.10;;;7.65;;
32228;SDS011;18717;48.034;11.186;2022-11-20T09:16:40;8.82;;;8.02;;
32228;SDS011;18717;48.034;11.186;2022-11-20T09:19:10;8.70;;;7.90;;
32228;SDS011;18717;48.034;11.186;2022-11-20T09:21:57;8.00;;;7.30;;
32228;SDS011;18717;48.034;11.186;2022-11-20T09:24:26;9.77;;;8.77;;
32228;SDS011;18717;48.034;11.186;2022-11-20T09:26:54;8.20;;;7.70;;
32228;SDS011;18717;48.034;11.186;2022-11-20T09:29:21;8.88;;;8.23;;
32228;SDS011;18717;48.034;11.186;2022-11-20T09:31:49;9.02;;;8.43;;
32228;SDS011;18717;48.034;11.186;2022-11-20T09:34:18;11.07;;;10.27;;
32228;SDS011;18717;48.034;11.186;2022-11-20T09:36:46;9.38;;;8.05;;
32228;SDS011;18717;48.034;11.186;2022-11-20T09:39:14;8.60;;;7.90;;
32228;SDS011;18717;48.034;11.186;2022-11-20T09:41:49;8.60;;;8.10;;
32228;SDS011;18717;48.034;11.186;2022-11-20T09:44:40;8.20;;;7.50;;
32228;SDS011;18717;48.034;11.186;2022-11-20T09:47:20;8.73;;;8.13;;
32228;SDS011;18717;48.034;11.186;2022-11-20T09:49:58;8.10;;;7.60;;
32228;SDS011;18717;48.034;11.186;2022-11-20T09:52:31;8.43;;;7.85;;
32228;SDS011;18717;48.034;11.186;2022-11-20T09:55:02;7.53;;;7.13;;
32228;SDS011;18717;48.034;11.186;2022-11-20T09:57:32;7.90;;;7.45;;
32228;SDS011;18717;48.034;11.186;2022-11-20T10:00:03;5.78;;;5.47;;
32228;SDS011;18717;48.034;11.186;2022-11-20T10:02:35;8.40;;;7.70;;
32228;SDS011;18717;48.034;11.186;2022-11-20T10:05:09;7.70;;;7.20;;
32228;SDS011;18717;48.034;11.186;2022-11-20T10:07:41;8.25;;;7.85;;
32228;SDS011;18717;48.034;11.186;2022-11-20T10:10:14;8.83;;;8.23;;
32228;SDS011;18717;48.034;11.186;2022-11-20T10:15:22;8.07;;;7.68;;
32228;SDS011;18717;48.034;11.186;2022-11-20T10:17:58;8.40;;;7.80;;
32228;SDS011;18717;48.034;11.186;2022-11-20T10:20:35;8.13;;;7.53;;
32228;SDS011;18717;48.034;11.186;2022-11-20T10:23:16;8.70;;;8.20;;
32228;SDS011;18717;48.034;11.186;2022-11-20T10:25:54;7.82;;;7.47;;
32228;SDS011;18717;48.034;11.186;2022-11-20T10:28:34;8.18;;;7.60;;
32228;SDS011;18717;48.034;11.186;2022-11-20T10:31:25;8.18;;;7.75;;
32228;SDS011;18717;48.034;11.186;2022-11-20T10:33:56;7.68;;;7.28;;
32228;SDS011;18717;48.034;11.186;2022-11-20T10:36:49;7.40;;;7.00;;
32228;SDS011;18717;48.034;11.186;2022-11-20T10:39:22;7.75;;;7.35;;
32228;SDS011;18717;48.034;11.186;2022-11-20T10:41:56;8.85;;;8.23;;
32228;SDS011;18717;48.034;11.186;2022-11-20T10:44:26;8.45;;;8.05;;
32228;SDS011;18717;48.034;11.186;2022-11-20T10:47:13;8.05;;;7.63;;
32228;SDS011;18717;48.034;11.186;2022-11-20T10:49:42;8.98;;;8.48;;
32228;SDS011;18717;48.034;11.186;2022-11-20T10:52:13;8.15;;;7.57;;
32228;SDS011;18717;48.034;11.186;2022-11-20T10:54:46;7.43;;;7.13;;
32228;SDS011;18717;48.034;11.186;2022-11-20T10:57:20;7.75;;;7.30;;
32228;SDS011;18717;48.034;11.186;2022-11-20T11:00:00;8.20;;;7.80;;
32228;SDS011;18717;48.034;11.186;2022-11-20T11:02:32;8.88;;;7.82;;
32228;SDS011;18717;48.034;11.186;2022-11-20T11:05:05;8.18;;;7.75;;
32228;SDS011;18717;48.034;11.186;2022-11-20T11:07:41;8.48;;;8.00;;
32228;SDS011;18717;48.034;11.186;2022-11-20T11:12:43;8.13;;;7.63;;
32228;SDS011;18717;48.034;11.186;2022-11-20T11:15:12;8.40;;;7.80;;
32228;SDS011;18717;48.034;11.186;2022-11-20T11:17:46;7.90;;;7.50;;
32228;SDS011;18717;48.034;11.186;2022-11-20T11:20:15;8.63;;;7.88;;
32228;SDS011;18717;48.034;11.186;2022-11-20T11:22:47;7.72;;;7.32;;
32228;SDS011;18717;48.034;11.186;2022-11-20T11:25:19;5.43;;;5.17;;
32228;SDS011;18717;48.034;11.186;2022-11-20T11:27:50;8.27;;;7.78;;
32228;SDS011;18717;48.034;11.186;2022-11-20T11:30:19;8.65;;;8.00;;
32228;SDS011;18717;48.034;11.186;2022-11-20T11:32:47;8.35;;;7.60;;
32228;SDS011;18717;48.034;11.186;2022-11-20T11:35:19;8.40;;;7.90;;
32228;SDS011;18717;48.034;11.186;2022-11-20T11:37:53;8.43;;;7.93;;
32228;SDS011;18717;48.034;11.186;2022-11-20T11:40:28;8.43;;;8.02;;
32228;SDS011;18717;48.034;11.186;2022-11-20T11:42:59;7.93;;;7.32;;
32228;SDS011;18717;48.034;11.186;2022-11-20T11:45:27;8.25;;;7.65;;
32228;SDS011;18717;48.034;11.186;2022-11-20T11:47:55;8.95;;;8.35;;
32228;SDS011;18717;48.034;11.186;2022-11-20T11:50:24;8.10;;;7.65;;
32228;SDS011;18717;48.034;11.186;2022-11-20T11:52:58;8.00;;;7.60;;
32228;SDS011;18717;48.034;11.186;2022-11-20T11:55:33;8.63;;;8.02;;
32228;SDS011;18717;48.034;11.186;2022-11-20T11:58:09;8.13;;;7.63;;
32228;SDS011;18717;48.034;11.186;2022-11-20T12:00:40;8.35;;;7.85;;
32228;SDS011;18717;48.034;11.186;2022-11-20T12:03:12;9.15;;;8.55;;
32228;SDS011;18717;48.034;11.186;2022-11-20T12:05:44;8.10;;;7.50;;
32228;SDS011;18717;48.034;11.186;2022-11-20T12:08:17;14.77;;;10.40;;
32228;SDS011;18717;48.034;11.186;2022-11-20T12:10:48;8.13;;;7.63;;
32228;SDS011;18717;48.034;11.186;2022-11-20T12:13:21;8.63;;;8.13;;
32228;SDS011;18717;48.034;11.186;2022-11-20T12:15:52;8.48;;;7.97;;
32228;SDS011;18717;48.034;11.186;2022-11-20T12:18:21;8.52;;;7.82;;
32228;SDS011;18717;48.034;11.186;2022-11-20T12:20:53;7.65;;;7.15;;
32228;SDS011;18717;48.034;11.186;2022-11-20T12:23:29;7.80;;;7.38;;
32228;SDS011;18717;48.034;11.186;2022-11-20T12:26:04;8.15;;;7.75;;
32228;SDS011;18717;48.034;11.186;2022-11-20T12:28:41;9.73;;;7.68;;
32228;SDS011;18717;48.034;11.186;2022-11-20T12:31:25;8.00;;;7.50;;
32228;SDS011;18717;48.034;11.186;2022-11-20T12:34:02;8.45;;;7.85;;
32228;SDS011;18717;48.034;11.186;2022-11-20T12:36:51;8.48;;;7.80;;
32228;SDS011;18717;48.034;11.186;2022-11-20T12:42:13;8.63;;;7.93;;
32228;SDS011;18717;48.034;11.186;2022-11-20T12:48:16;7.50;;;7.07;;
32228;SDS011;18717;48.034;11.186;2022-11-20T12:50:54;8.35;;;7.75;;
32228;SDS011;18717;48.034;11.186;2022-11-20T12:53:41;7.45;;;7.00;;
32228;SDS011;18717;48.034;11.186;2022-11-20T12:56:19;8.35;;;7.88;;
32228;SDS011;18717;48.034;11.186;2022-11-20T12:58:53;8.20;;;7.70;;
32228;SDS011;18717;48.034;11.186;2022-11-20T13:01:29;8.20;;;7.70;;
32228;SDS011;18717;48.034;11.186;2022-11-20T13:04:16;8.27;;;7.78;;
32228;SDS011;18717;48.034;11.186;2022-11-20T13:06:51;8.10;;;7.50;;
32228;SDS011;18717;48.034;11.186;2022-11-20T13:09:19;8.95;;;8.35;;
32228;SDS011;18717;48.034;11.186;2022-11-20T13:11:51;8.95;;;8.45;;
32228;SDS011;18717;48.034;11.186;2022-11-20T13:14:28;8.13;;;7.63;;
32228;SDS011;18717;48.034;11.186;2022-11-20T13:17:00;8.88;;;8.32;;
32228;SDS011;18717;48.034;11.186;2022-11-20T13:19:32;8.10;;;7.60;;
32228;SDS011;18717;48.034;11.186;2022-11-20T13:22:00;8.55;;;7.95;;
32228;SDS011;18717;48.034;11.186;2022-11-20T13:24:29;8.77;;;8.10;;
32228;SDS011;18717;48.034;11.186;2022-11-20T13:27:03;8.75;;;8.23;;
32228;SDS011;18717;48.034;11.186;2022-11-20T13:29:32;8.07;;;7.63;;
32228;SDS011;18717;48.034;11.186;2022-11-20T13:32:02;9.40;;;8.88;;
32228;SDS011;18717;48.034;11.186;2022-11-20T13:34:33;8.70;;;8.10;;
32228;SDS011;18717;48.034;11.186;2022-11-20T13:37:02;7.72;;;7.32;;
32228;SDS011;18717;48.034;11.186;2022-11-20T13:39:31;8.13;;;7.63;;
32228;SDS011;18717;48.034;11.186;2022-11-20T13:42:00;9.00;;;8.30;;
32228;SDS011;18717;48.034;11.186;2022-11-20T13:44:34;7.90;;;7.40;;
32228;SDS011;18717;48.034;11.186;2022-11-20T13:47:16;7.97;;;7.40;;
32228;SDS011;18717;48.034;11.186;2022-11-20T13:49:47;7.78;;;7.20;;
32228;SDS011;18717;48.034;11.186;2022-11-20T13:52:23;8.52;;;8.02;;
32228;SDS011;18717;48.034;11.186;2022-11-20T13:55:07;8.80;;;8.10;;
32228;SDS011;18717;48.034;11.186;2022-11-20T13:57:46;7.82;;;7.32;;
32228;SDS011;18717;48.034;11.186;2022-11-20T14:00:22;8.50;;;7.78;;
32228;SDS011;18717;48.034;11.186;2022-11-20T14:02:57;8.73;;;8.00;;
32228;SDS011;18717;48.034;11.186;2022-11-20T14:05:28;7.32;;;7.03;;
32228;SDS011;18717;48.034;11.186;2022-11-20T14:07:58;8.10;;;7.70;;
32228;SDS011;18717;48.034;11.186;2022-11-20T14:10:27;9.00;;;8.48;;
32228;SDS011;18717;48.034;11.186;2022-11-20T14:12:58;7.50;;;7.00;;
32228;SDS011;18717;48.034;11.186;2022-11-20T14:15:28;7.60;;;7.20;;
32228;SDS011;18717;48.034;11.186;2022-11-20T14:17:57;6.50;;;6.30;;
32228;SDS011;18717;48.034;11.186;2022-11-20T14:20:25;6.95;;;6.65;;
32228;SDS011;18717;48.034;11.186;2022-11-20T14:22:55;6.85;;;6.40;;
32228;SDS011;18717;48.034;11.186;2022-11-20T14:25:23;6.30;;;6.10;;
32228;SDS011;18717;48.034;11.186;2022-11-20T14:27:53;7.10;;;6.78;;
32228;SDS011;18717;48.034;11.186;2022-11-20T14:30:23;6.78;;;6.47;;
32228;SDS011;18717;48.034;11.186;2022-11-20T14:32:54;7.63;;;7.22;;
32228;SDS011;18717;48.034;11.186;2022-11-20T14:35:25;7.38;;;6.97;;
32228;SDS011;18717;48.034;11.186;2022-11-20T14:37:54;6.55;;;6.25;;
32228;SDS011;18717;48.034;11.186;2022-11-20T14:40:27;6.55;;;6.25;;
32228;SDS011;18717;48.034;11.186;2022-11-20T14:42:56;7.03;;;6.60;;
32228;SDS011;18717;48.034;11.186;2022-11-20T14:45:24;7.30;;;7.00;;
32228;SDS011;18717;48.034;11.186;2022-11-20T14:47:55;7.53;;;7.05;;
32228;SDS011;18717;48.034;11.186;2022-11-20T14:50:24;6.93;;;6.63;;
32228;SDS011;18717;48.034;11.186;2022-11-20T14:52:53;8.98;;;7.47;;
32228;SDS011;18717;48.034;11.186;2022-11-20T14:55:25;8.90;;;8.43;;
32228;SDS011;18717;48.034;11.186;2022-11-20T14:57:54;6.88;;;6.38;;
32228;SDS011;18717;48.034;11.186;2022-11-20T15:00:23;7.85;;;7.35;;